createdAt,value
2018-02-16T00:00:51.355Z,18.70
2018-02-16T00:11:03.522Z,18.70
2018-02-16T00:21:14.128Z,18.80
2018-02-16T00:31:22.679Z,18.90
2018-02-16T00:41:31.314Z,18.80
2018-02-16T00:51:41.706Z,18.90
2018-02-16T01:01:51.037Z,18.50
2018-02-16T01:12:04.135Z,18.50
2018-02-16T01:22:14.724Z,16.30
2018-02-16T01:32:27.281Z,16.50
2018-02-16T01:42:36.216Z,16.80
2018-02-16T01:52:45.188Z,16.60
2018-02-16T02:02:53.998Z,18.20
2018-02-16T02:13:02.712Z,18.40
2018-02-16T02:23:14.819Z,18.60
2018-02-16T02:33:25.051Z,19.00
2018-02-16T02:43:32.718Z,18.50
2018-02-16T02:53:43.055Z,19.00
2018-02-16T03:03:52.288Z,18.70
2018-02-16T03:14:05.940Z,18.70
2018-02-16T03:24:14.563Z,18.40
2018-02-16T03:34:22.740Z,17.90
2018-02-16T03:44:31.746Z,18.30
2018-02-16T03:54:40.789Z,17.50
2018-02-16T04:04:52.504Z,16.90
2018-02-16T04:15:01.001Z,17.00
2018-02-16T04:25:09.016Z,16.60
2018-02-16T04:35:17.653Z,17.10
2018-02-16T04:45:25.417Z,17.30
2018-02-16T04:55:36.092Z,17.70
2018-02-16T05:05:45.762Z,17.50
2018-02-16T05:15:55.493Z,17.20
2018-02-16T05:26:03.388Z,17.00
2018-02-16T05:36:16.217Z,17.80
2018-02-16T05:46:27.843Z,17.80
2018-02-16T05:56:36.059Z,17.60
2018-02-16T06:06:47.136Z,17.10
2018-02-16T06:16:56.441Z,17.00
2018-02-16T06:27:08.485Z,17.30
2018-02-16T06:37:19.491Z,17.60
2018-02-16T06:47:29.958Z,17.50
2018-02-16T06:57:39.807Z,17.90
2018-02-16T07:07:48.787Z,17.80
2018-02-16T07:17:58.163Z,18.00
2018-02-16T07:28:06.153Z,18.40
2018-02-16T07:38:20.403Z,20.50
2018-02-16T07:48:30.328Z,20.40
2018-02-16T07:58:40.331Z,20.70
2018-02-16T08:08:48.997Z,20.70
2018-02-16T08:18:57.978Z,21.20
2018-02-16T08:29:06.973Z,21.50
2018-02-16T08:39:16.837Z,21.30
2018-02-16T08:49:31.869Z,21.20
2018-02-16T08:59:47.158Z,19.80
2018-02-16T09:09:55.677Z,20.80
2018-02-16T09:20:04.330Z,21.20
2018-02-16T09:30:13.490Z,20.80
2018-02-16T09:40:23.912Z,20.90
2018-02-16T09:50:37.040Z,20.90
2018-02-16T10:00:45.835Z,28.30
2018-02-16T10:10:53.839Z,28.30
2018-02-16T10:21:03.671Z,30.00
2018-02-16T10:31:14.852Z,32.40
2018-02-16T10:41:23.403Z,32.40
2018-02-16T10:51:31.594Z,32.80
2018-02-16T11:01:46.447Z,33.60
2018-02-16T11:11:55.204Z,33.90
2018-02-16T11:22:04.630Z,34.00
2018-02-16T11:32:17.132Z,34.70
2018-02-16T11:42:26.657Z,34.60
2018-02-16T11:52:36.470Z,34.90
2018-02-16T12:02:46.231Z,35.60
2018-02-16T12:12:58.759Z,35.60
2018-02-16T12:23:10.915Z,35.50
2018-02-16T12:33:20.357Z,35.10
2018-02-16T12:43:30.072Z,34.30
2018-02-16T12:53:41.364Z,34.30
2018-02-16T13:03:50.833Z,33.90
2018-02-16T13:13:59.169Z,33.50
2018-02-16T13:24:11.718Z,32.80
2018-02-16T13:34:20.028Z,32.70
2018-02-16T13:44:29.897Z,32.60
2018-02-16T13:54:40.236Z,32.60
2018-02-16T14:04:48.846Z,31.90
2018-02-16T14:14:57.207Z,32.50
2018-02-16T14:25:06.614Z,32.90
2018-02-16T14:35:16.633Z,33.70
2018-02-16T14:45:25.122Z,33.60
2018-02-16T14:55:36.582Z,33.90
2018-02-16T15:05:47.202Z,33.70
2018-02-16T15:15:56.931Z,33.60
2018-02-16T15:26:06.271Z,33.30
2018-02-16T15:36:14.429Z,33.30
2018-02-16T15:46:22.891Z,32.90
2018-02-16T15:56:34.345Z,32.70
2018-02-16T16:06:45.054Z,32.30
2018-02-16T16:16:53.846Z,31.90
2018-02-16T16:27:02.873Z,31.80
2018-02-16T16:37:15.041Z,31.90
2018-02-16T16:47:23.612Z,31.50
2018-02-16T16:57:36.037Z,31.30
2018-02-16T17:07:46.289Z,31.00
2018-02-16T17:17:54.444Z,31.00
2018-02-16T17:28:02.408Z,30.90
2018-02-16T17:38:13.492Z,30.50
2018-02-16T17:48:21.523Z,30.40
2018-02-16T17:58:36.174Z,30.20
2018-02-16T18:08:45.342Z,30.20
2018-02-16T18:18:54.282Z,30.20
2018-02-16T18:29:02.983Z,30.00
2018-02-16T18:39:12.610Z,30.00
2018-02-16T18:49:22.353Z,30.00
2018-02-16T18:59:31.992Z,29.70
2018-02-16T19:09:39.929Z,29.70
2018-02-16T19:19:48.310Z,29.70
2018-02-16T19:29:56.099Z,29.50
2018-02-16T19:40:07.989Z,29.40
2018-02-16T19:50:16.830Z,29.40
2018-02-16T20:00:25.914Z,29.10
2018-02-16T20:10:35.026Z,29.10
2018-02-16T20:20:43.240Z,29.00
2018-02-16T20:30:52.345Z,28.80
2018-02-16T20:41:01.019Z,28.50
2018-02-16T20:51:11.402Z,28.10
2018-02-16T21:01:19.221Z,28.10
2018-02-16T21:11:29.623Z,28.00
2018-02-16T21:21:39.636Z,28.00
2018-02-16T21:31:48.882Z,28.00
2018-02-16T21:41:57.759Z,27.70
2018-02-16T21:52:07.227Z,27.20
2018-02-16T22:02:15.858Z,27.00
2018-02-16T22:22:35.065Z,27.40
2018-02-16T22:32:42.988Z,27.60
2018-02-16T22:42:51.764Z,27.50
2018-02-16T22:53:00.408Z,27.40
2018-02-16T23:03:11.268Z,27.40
2018-02-16T23:13:20.252Z,27.30
2018-02-16T23:23:29.170Z,27.20
2018-02-16T23:33:38.057Z,27.00
2018-02-16T23:43:49.144Z,27.10
2018-02-16T23:53:58.419Z,27.30
